sensor_id;sensor_type;location;lat;lon;timestamp;temperature;humidity
72930;DHT22;61073;54.260;20.816;2022-08-19T00:01:52;26.40;61.30
72930;DHT22;61073;54.260;20.816;2022-08-19T00:04:26;26.40;61.30
72930;DHT22;61073;54.260;20.816;2022-08-19T00:06:55;26.40;61.50
72930;DHT22;61073;54.260;20.816;2022-08-19T00:09:24;26.40;61.40
72930;DHT22;61073;54.260;20.816;2022-08-19T00:11:52;26.40;61.40
72930;DHT22;61073;54.260;20.816;2022-08-19T00:14:19;26.40;61.40
72930;DHT22;61073;54.260;20.816;2022-08-19T00:16:48;26.40;61.40
72930;DHT22;61073;54.260;20.816;2022-08-19T00:19:16;26.40;61.50
72930;DHT22;61073;54.260;20.816;2022-08-19T00:21:43;26.40;61.40
72930;DHT22;61073;54.260;20.816;2022-08-19T00:24:12;26.40;61.40
72930;DHT22;61073;54.260;20.816;2022-08-19T00:26:41;26.40;61.30
72930;DHT22;61073;54.260;20.816;2022-08-19T00:29:10;26.40;61.40
72930;DHT22;61073;54.260;20.816;2022-08-19T00:31:38;26.40;61.60
72930;DHT22;61073;54.260;20.816;2022-08-19T00:34:04;26.40;61.50
72930;DHT22;61073;54.260;20.816;2022-08-19T00:36:31;26.40;61.50
72930;DHT22;61073;54.260;20.816;2022-08-19T00:38:59;26.40;61.50
72930;DHT22;61073;54.260;20.816;2022-08-19T00:41:27;26.40;61.60
72930;DHT22;61073;54.260;20.816;2022-08-19T00:44:04;26.40;61.50
72930;DHT22;61073;54.260;20.816;2022-08-19T00:46:32;26.40;61.80
72930;DHT22;61073;54.260;20.816;2022-08-19T00:49:00;26.40;61.60
72930;DHT22;61073;54.260;20.816;2022-08-19T00:51:30;26.40;61.60
72930;DHT22;61073;54.260;20.816;2022-08-19T00:53:59;26.40;61.80
72930;DHT22;61073;54.260;20.816;2022-08-19T00:56:27;26.30;61.50
72930;DHT22;61073;54.260;20.816;2022-08-19T00:58:56;26.30;61.60
72930;DHT22;61073;54.260;20.816;2022-08-19T01:01:24;26.30;61.60
72930;DHT22;61073;54.260;20.816;2022-08-19T01:03:51;26.30;61.70
72930;DHT22;61073;54.260;20.816;2022-08-19T01:06:18;26.30;61.70
72930;DHT22;61073;54.260;20.816;2022-08-19T01:08:45;26.40;61.70
72930;DHT22;61073;54.260;20.816;2022-08-19T01:11:12;26.30;61.70
72930;DHT22;61073;54.260;20.816;2022-08-19T01:13:39;26.30;61.80
72930;DHT22;61073;54.260;20.816;2022-08-19T01:16:09;26.30;61.80
72930;DHT22;61073;54.260;20.816;2022-08-19T01:18:39;26.30;61.80
72930;DHT22;61073;54.260;20.816;2022-08-19T01:23:47;26.30;61.90
72930;DHT22;61073;54.260;20.816;2022-08-19T01:26:20;26.30;61.90
72930;DHT22;61073;54.260;20.816;2022-08-19T01:28:50;26.30;61.90
72930;DHT22;61073;54.260;20.816;2022-08-19T01:31:20;26.30;61.80
72930;DHT22;61073;54.260;20.816;2022-08-19T01:33:49;26.30;61.80
72930;DHT22;61073;54.260;20.816;2022-08-19T01:36:27;26.30;61.90
72930;DHT22;61073;54.260;20.816;2022-08-19T01:38:55;26.20;61.60
72930;DHT22;61073;54.260;20.816;2022-08-19T01:41:21;26.30;61.90
72930;DHT22;61073;54.260;20.816;2022-08-19T01:43:50;26.30;61.80
72930;DHT22;61073;54.260;20.816;2022-08-19T01:46:18;26.30;61.80
72930;DHT22;61073;54.260;20.816;2022-08-19T01:48:48;26.20;61.90
72930;DHT22;61073;54.260;20.816;2022-08-19T01:51:15;26.20;61.80
72930;DHT22;61073;54.260;20.816;2022-08-19T01:53:42;26.20;61.90
72930;DHT22;61073;54.260;20.816;2022-08-19T01:56:08;26.20;61.90
72930;DHT22;61073;54.260;20.816;2022-08-19T01:58:40;26.20;61.90
72930;DHT22;61073;54.260;20.816;2022-08-19T02:01:08;26.30;62.00
72930;DHT22;61073;54.260;20.816;2022-08-19T02:03:36;26.20;61.90
72930;DHT22;61073;54.260;20.816;2022-08-19T02:06:03;26.20;62.50
72930;DHT22;61073;54.260;20.816;2022-08-19T02:08:30;26.20;61.80
72930;DHT22;61073;54.260;20.816;2022-08-19T02:10:57;26.20;61.90
72930;DHT22;61073;54.260;20.816;2022-08-19T02:13:26;26.20;61.90
72930;DHT22;61073;54.260;20.816;2022-08-19T02:15:53;26.20;62.00
72930;DHT22;61073;54.260;20.816;2022-08-19T02:18:20;26.20;61.90
72930;DHT22;61073;54.260;20.816;2022-08-19T02:20:46;26.20;61.80
72930;DHT22;61073;54.260;20.816;2022-08-19T02:23:14;26.20;61.90
72930;DHT22;61073;54.260;20.816;2022-08-19T02:25:45;26.20;61.90
72930;DHT22;61073;54.260;20.816;2022-08-19T02:28:12;26.20;61.90
72930;DHT22;61073;54.260;20.816;2022-08-19T02:30:42;26.20;62.00
72930;DHT22;61073;54.260;20.816;2022-08-19T02:33:09;26.20;62.10
72930;DHT22;61073;54.260;20.816;2022-08-19T02:35:35;26.20;62.00
72930;DHT22;61073;54.260;20.816;2022-08-19T02:38:02;26.20;62.10
72930;DHT22;61073;54.260;20.816;2022-08-19T02:40:51;26.20;62.10
72930;DHT22;61073;54.260;20.816;2022-08-19T02:43:19;26.20;62.10
72930;DHT22;61073;54.260;20.816;2022-08-19T02:45:49;26.20;62.00
72930;DHT22;61073;54.260;20.816;2022-08-19T02:48:20;26.20;62.10
72930;DHT22;61073;54.260;20.816;2022-08-19T02:50:49;26.10;62.00
72930;DHT22;61073;54.260;20.816;2022-08-19T02:53:23;26.10;62.10
72930;DHT22;61073;54.260;20.816;2022-08-19T02:55:51;26.10;62.00
72930;DHT22;61073;54.260;20.816;2022-08-19T02:58:19;26.10;61.90
72930;DHT22;61073;54.260;20.816;2022-08-19T03:00:50;26.10;62.10
72930;DHT22;61073;54.260;20.816;2022-08-19T03:03:18;26.10;62.10
72930;DHT22;61073;54.260;20.816;2022-08-19T03:05:45;26.10;62.10
72930;DHT22;61073;54.260;20.816;2022-08-19T03:08:13;26.10;62.00
72930;DHT22;61073;54.260;20.816;2022-08-19T03:10:43;26.10;62.10
72930;DHT22;61073;54.260;20.816;2022-08-19T03:13:12;26.10;62.10
72930;DHT22;61073;54.260;20.816;2022-08-19T03:15:41;26.10;62.10
72930;DHT22;61073;54.260;20.816;2022-08-19T03:18:08;26.10;62.20
72930;DHT22;61073;54.260;20.816;2022-08-19T03:20:43;26.10;62.10
72930;DHT22;61073;54.260;20.816;2022-08-19T03:23:11;26.10;62.70
72930;DHT22;61073;54.260;20.816;2022-08-19T03:25:41;26.10;62.20
72930;DHT22;61073;54.260;20.816;2022-08-19T03:28:11;26.10;62.30
72930;DHT22;61073;54.260;20.816;2022-08-19T03:30:39;26.10;62.10
72930;DHT22;61073;54.260;20.816;2022-08-19T03:33:10;26.10;62.20
72930;DHT22;61073;54.260;20.816;2022-08-19T03:35:38;26.10;62.30
72930;DHT22;61073;54.260;20.816;2022-08-19T03:38:05;26.10;62.20
72930;DHT22;61073;54.260;20.816;2022-08-19T03:40:36;26.10;62.20
72930;DHT22;61073;54.260;20.816;2022-08-19T03:43:03;26.10;62.20
72930;DHT22;61073;54.260;20.816;2022-08-19T03:45:30;26.10;62.30
72930;DHT22;61073;54.260;20.816;2022-08-19T03:47:56;26.10;62.20
72930;DHT22;61073;54.260;20.816;2022-08-19T03:50:24;26.10;62.30
72930;DHT22;61073;54.260;20.816;2022-08-19T03:52:52;26.10;62.30
72930;DHT22;61073;54.260;20.816;2022-08-19T03:55:19;26.10;62.20
72930;DHT22;61073;54.260;20.816;2022-08-19T03:57:45;26.10;62.30
72930;DHT22;61073;54.260;20.816;2022-08-19T04:00:14;26.10;62.30
72930;DHT22;61073;54.260;20.816;2022-08-19T04:02:41;26.10;62.20
72930;DHT22;61073;54.260;20.816;2022-08-19T04:05:08;26.10;62.30
72930;DHT22;61073;54.260;20.816;2022-08-19T04:07:35;26.10;62.30
72930;DHT22;61073;54.260;20.816;2022-08-19T04:10:02;26.10;62.20
72930;DHT22;61073;54.260;20.816;2022-08-19T04:12:29;26.10;62.20
72930;DHT22;61073;54.260;20.816;2022-08-19T04:14:56;26.10;62.20
72930;DHT22;61073;54.260;20.816;2022-08-19T04:17:22;26.10;62.20
72930;DHT22;61073;54.260;20.816;2022-08-19T04:19:49;26.10;62.20
72930;DHT22;61073;54.260;20.816;2022-08-19T04:22:16;26.10;62.30
72930;DHT22;61073;54.260;20.816;2022-08-19T04:24:42;26.10;62.80
72930;DHT22;61073;54.260;20.816;2022-08-19T04:27:09;26.10;62.20
72930;DHT22;61073;54.260;20.816;2022-08-19T04:29:35;26.10;62.20
72930;DHT22;61073;54.260;20.816;2022-08-19T04:32:05;26.10;62.30
72930;DHT22;61073;54.260;20.816;2022-08-19T04:34:32;26.10;62.30
72930;DHT22;61073;54.260;20.816;2022-08-19T04:36:59;26.10;62.20
72930;DHT22;61073;54.260;20.816;2022-08-19T04:39:28;26.10;62.20
72930;DHT22;61073;54.260;20.816;2022-08-19T04:42:17;26.10;62.20
72930;DHT22;61073;54.260;20.816;2022-08-19T04:45:08;26.10;62.10
72930;DHT22;61073;54.260;20.816;2022-08-19T04:47:39;26.10;62.10
72930;DHT22;61073;54.260;20.816;2022-08-19T04:50:08;26.10;62.10
72930;DHT22;61073;54.260;20.816;2022-08-19T04:52:38;26.10;62.10
72930;DHT22;61073;54.260;20.816;2022-08-19T04:55:11;26.10;62.00
72930;DHT22;61073;54.260;20.816;2022-08-19T04:57:38;26.10;62.10
72930;DHT22;61073;54.260;20.816;2022-08-19T05:00:08;26.10;62.60
72930;DHT22;61073;54.260;20.816;2022-08-19T05:02:35;26.10;62.00
72930;DHT22;61073;54.260;20.816;2022-08-19T05:05:02;26.10;61.90
72930;DHT22;61073;54.260;20.816;2022-08-19T05:07:29;26.20;62.10
72930;DHT22;61073;54.260;20.816;2022-08-19T05:09:57;26.10;61.90
72930;DHT22;61073;54.260;20.816;2022-08-19T05:12:25;26.10;62.00
72930;DHT22;61073;54.260;20.816;2022-08-19T05:14:52;26.10;61.90
72930;DHT22;61073;54.260;20.816;2022-08-19T05:17:20;26.20;62.00
72930;DHT22;61073;54.260;20.816;2022-08-19T05:19:52;26.10;61.90
72930;DHT22;61073;54.260;20.816;2022-08-19T05:22:37;26.10;61.90
72930;DHT22;61073;54.260;20.816;2022-08-19T05:25:06;26.20;62.00
72930;DHT22;61073;54.260;20.816;2022-08-19T05:27:43;26.20;62.00
72930;DHT22;61073;54.260;20.816;2022-08-19T05:30:10;26.20;62.00
72930;DHT22;61073;54.260;20.816;2022-08-19T05:32:38;26.20;61.90
72930;DHT22;61073;54.260;20.816;2022-08-19T05:35:06;26.20;61.90
72930;DHT22;61073;54.260;20.816;2022-08-19T05:37:33;26.20;61.90
72930;DHT22;61073;54.260;20.816;2022-08-19T05:39:59;26.20;62.00
72930;DHT22;61073;54.260;20.816;2022-08-19T05:42:26;26.20;62.00
72930;DHT22;61073;54.260;20.816;2022-08-19T05:44:53;26.20;61.90
72930;DHT22;61073;54.260;20.816;2022-08-19T05:47:20;26.20;61.90
72930;DHT22;61073;54.260;20.816;2022-08-19T05:49:48;26.20;61.90
72930;DHT22;61073;54.260;20.816;2022-08-19T05:52:16;26.20;61.90
72930;DHT22;61073;54.260;20.816;2022-08-19T05:54:43;26.20;61.90
72930;DHT22;61073;54.260;20.816;2022-08-19T05:57:14;26.20;61.90
72930;DHT22;61073;54.260;20.816;2022-08-19T05:59:42;26.30;62.00
72930;DHT22;61073;54.260;20.816;2022-08-19T06:02:10;26.30;62.10
72930;DHT22;61073;54.260;20.816;2022-08-19T06:04:36;26.20;62.00
72930;DHT22;61073;54.260;20.816;2022-08-19T06:07:04;26.30;62.10
72930;DHT22;61073;54.260;20.816;2022-08-19T06:09:31;26.30;62.70
72930;DHT22;61073;54.260;20.816;2022-08-19T06:11:58;26.30;62.10
72930;DHT22;61073;54.260;20.816;2022-08-19T06:14:29;26.30;62.10
72930;DHT22;61073;54.260;20.816;2022-08-19T06:16:57;26.30;62.10
72930;DHT22;61073;54.260;20.816;2022-08-19T06:19:30;26.30;62.10
72930;DHT22;61073;54.260;20.816;2022-08-19T06:21:58;26.30;62.10
72930;DHT22;61073;54.260;20.816;2022-08-19T06:24:27;26.30;62.00
72930;DHT22;61073;54.260;20.816;2022-08-19T06:26:55;26.30;62.00
72930;DHT22;61073;54.260;20.816;2022-08-19T06:29:25;26.30;62.00
72930;DHT22;61073;54.260;20.816;2022-08-19T06:31:55;26.40;62.00
72930;DHT22;61073;54.260;20.816;2022-08-19T06:34:23;26.30;62.00
72930;DHT22;61073;54.260;20.816;2022-08-19T06:36:52;26.40;62.10
72930;DHT22;61073;54.260;20.816;2022-08-19T06:39:28;26.40;62.60
72930;DHT22;61073;54.260;20.816;2022-08-19T06:41:56;26.40;62.00
72930;DHT22;61073;54.260;20.816;2022-08-19T06:44:26;26.40;62.00
72930;DHT22;61073;54.260;20.816;2022-08-19T06:46:56;26.40;62.00
72930;DHT22;61073;54.260;20.816;2022-08-19T06:49:23;26.40;61.90
72930;DHT22;61073;54.260;20.816;2022-08-19T06:51:50;26.40;62.00
72930;DHT22;61073;54.260;20.816;2022-08-19T06:54:18;26.40;61.90
72930;DHT22;61073;54.260;20.816;2022-08-19T06:56:45;26.40;61.90
72930;DHT22;61073;54.260;20.816;2022-08-19T06:59:18;26.40;61.90
72930;DHT22;61073;54.260;20.816;2022-08-19T07:01:50;26.40;61.80
72930;DHT22;61073;54.260;20.816;2022-08-19T07:04:20;26.40;61.90
72930;DHT22;61073;54.260;20.816;2022-08-19T07:06:47;26.50;61.90
72930;DHT22;61073;54.260;20.816;2022-08-19T07:09:15;26.40;61.80
72930;DHT22;61073;54.260;20.816;2022-08-19T07:11:47;26.50;61.90
72930;DHT22;61073;54.260;20.816;2022-08-19T07:14:15;26.40;61.90
72930;DHT22;61073;54.260;20.816;2022-08-19T07:16:46;26.50;62.00
72930;DHT22;61073;54.260;20.816;2022-08-19T07:19:12;26.40;61.90
72930;DHT22;61073;54.260;20.816;2022-08-19T07:21:39;26.40;61.80
72930;DHT22;61073;54.260;20.816;2022-08-19T07:24:06;26.50;61.90
72930;DHT22;61073;54.260;20.816;2022-08-19T07:26:37;26.50;61.90
72930;DHT22;61073;54.260;20.816;2022-08-19T07:29:06;26.50;61.90
72930;DHT22;61073;54.260;20.816;2022-08-19T07:31:32;26.50;61.90
72930;DHT22;61073;54.260;20.816;2022-08-19T07:34:04;26.50;61.90
72930;DHT22;61073;54.260;20.816;2022-08-19T07:36:37;26.60;61.90
72930;DHT22;61073;54.260;20.816;2022-08-19T07:39:11;26.60;61.90
72930;DHT22;61073;54.260;20.816;2022-08-19T07:41:38;26.50;61.80
72930;DHT22;61073;54.260;20.816;2022-08-19T07:44:07;26.50;61.70
72930;DHT22;61073;54.260;20.816;2022-08-19T07:46:36;26.60;61.80
72930;DHT22;61073;54.260;20.816;2022-08-19T07:49:05;26.50;61.70
72930;DHT22;61073;54.260;20.816;2022-08-19T07:51:33;26.60;61.80
72930;DHT22;61073;54.260;20.816;2022-08-19T07:54:00;26.60;61.80
72930;DHT22;61073;54.260;20.816;2022-08-19T07:56:27;26.60;61.70
72930;DHT22;61073;54.260;20.816;2022-08-19T07:58:54;26.60;61.80
72930;DHT22;61073;54.260;20.816;2022-08-19T08:01:24;26.60;61.80
72930;DHT22;61073;54.260;20.816;2022-08-19T08:03:53;26.60;61.80
72930;DHT22;61073;54.260;20.816;2022-08-19T08:06:39;26.60;61.80
72930;DHT22;61073;54.260;20.816;2022-08-19T08:09:28;26.60;61.70
72930;DHT22;61073;54.260;20.816;2022-08-19T08:12:05;26.60;61.70
72930;DHT22;61073;54.260;20.816;2022-08-19T08:14:52;26.70;61.70
72930;DHT22;61073;54.260;20.816;2022-08-19T08:17:24;26.60;61.70
72930;DHT22;61073;54.260;20.816;2022-08-19T08:19:51;26.70;61.70
72930;DHT22;61073;54.260;20.816;2022-08-19T08:22:20;26.70;61.70
72930;DHT22;61073;54.260;20.816;2022-08-19T08:25:08;26.70;61.70
72930;DHT22;61073;54.260;20.816;2022-08-19T08:27:39;26.70;61.60
72930;DHT22;61073;54.260;20.816;2022-08-19T08:30:16;26.70;61.60
72930;DHT22;61073;54.260;20.816;2022-08-19T08:32:43;26.70;61.60
72930;DHT22;61073;54.260;20.816;2022-08-19T08:35:14;26.70;61.60
72930;DHT22;61073;54.260;20.816;2022-08-19T08:37:44;26.70;61.60
72930;DHT22;61073;54.260;20.816;2022-08-19T08:43:18;26.70;61.60
72930;DHT22;61073;54.260;20.816;2022-08-19T08:45:53;26.70;61.50
72930;DHT22;61073;54.260;20.816;2022-08-19T08:48:25;26.70;61.50
72930;DHT22;61073;54.260;20.816;2022-08-19T08:50:54;26.80;61.50
72930;DHT22;61073;54.260;20.816;2022-08-19T08:53:23;26.70;61.40
72930;DHT22;61073;54.260;20.816;2022-08-19T08:55:50;26.70;61.40
72930;DHT22;61073;54.260;20.816;2022-08-19T08:58:21;26.80;61.40
72930;DHT22;61073;54.260;20.816;2022-08-19T09:00:50;26.80;61.40
72930;DHT22;61073;54.260;20.816;2022-08-19T09:03:20;26.80;61.40
72930;DHT22;61073;54.260;20.816;2022-08-19T09:06:00;26.80;61.40
72930;DHT22;61073;54.260;20.816;2022-08-19T09:09:12;26.80;61.40
72930;DHT22;61073;54.260;20.816;2022-08-19T09:14:50;26.80;61.30
72930;DHT22;61073;54.260;20.816;2022-08-19T09:17:21;26.80;61.20
72930;DHT22;61073;54.260;20.816;2022-08-19T09:20:06;26.80;61.20
72930;DHT22;61073;54.260;20.816;2022-08-19T09:22:40;26.90;61.20
72930;DHT22;61073;54.260;20.816;2022-08-19T09:25:08;26.80;61.10
72930;DHT22;61073;54.260;20.816;2022-08-19T09:27:37;26.80;61.00
72930;DHT22;61073;54.260;20.816;2022-08-19T09:30:06;26.80;61.00
72930;DHT22;61073;54.260;20.816;2022-08-19T09:32:33;26.90;61.00
72930;DHT22;61073;54.260;20.816;2022-08-19T09:35:00;26.90;61.00
72930;DHT22;61073;54.260;20.816;2022-08-19T09:37:27;26.90;60.90
72930;DHT22;61073;54.260;20.816;2022-08-19T09:39:55;26.90;60.90
72930;DHT22;61073;54.260;20.816;2022-08-19T09:42:21;26.90;61.40
72930;DHT22;61073;54.260;20.816;2022-08-19T09:44:49;26.90;60.80
72930;DHT22;61073;54.260;20.816;2022-08-19T09:47:15;26.90;60.80
72930;DHT22;61073;54.260;20.816;2022-08-19T09:49:43;26.90;60.80
72930;DHT22;61073;54.260;20.816;2022-08-19T09:52:10;27.00;60.80
72930;DHT22;61073;54.260;20.816;2022-08-19T09:54:38;27.00;60.70
72930;DHT22;61073;54.260;20.816;2022-08-19T09:57:05;27.00;60.70
72930;DHT22;61073;54.260;20.816;2022-08-19T09:59:32;27.00;60.70
72930;DHT22;61073;54.260;20.816;2022-08-19T10:01:59;27.00;60.60
72930;DHT22;61073;54.260;20.816;2022-08-19T10:04:26;27.00;60.50
72930;DHT22;61073;54.260;20.816;2022-08-19T10:07:12;27.00;60.50
72930;DHT22;61073;54.260;20.816;2022-08-19T10:09:39;27.00;60.30
72930;DHT22;61073;54.260;20.816;2022-08-19T10:12:07;27.00;60.20
72930;DHT22;61073;54.260;20.816;2022-08-19T10:14:36;27.00;60.20
72930;DHT22;61073;54.260;20.816;2022-08-19T10:17:03;27.10;60.20
72930;DHT22;61073;54.260;20.816;2022-08-19T10:19:29;27.10;60.10
72930;DHT22;61073;54.260;20.816;2022-08-19T10:22:06;27.10;60.00
72930;DHT22;61073;54.260;20.816;2022-08-19T10:24:36;27.10;60.00
72930;DHT22;61073;54.260;20.816;2022-08-19T10:27:02;27.10;59.90
72930;DHT22;61073;54.260;20.816;2022-08-19T10:29:33;27.10;59.90
72930;DHT22;61073;54.260;20.816;2022-08-19T10:32:03;27.10;59.90
72930;DHT22;61073;54.260;20.816;2022-08-19T10:34:31;27.20;59.90
72930;DHT22;61073;54.260;20.816;2022-08-19T10:36:58;27.20;59.90
72930;DHT22;61073;54.260;20.816;2022-08-19T10:39:31;27.20;59.80
72930;DHT22;61073;54.260;20.816;2022-08-19T10:41:58;27.20;59.70
72930;DHT22;61073;54.260;20.816;2022-08-19T10:44:26;27.20;59.60
72930;DHT22;61073;54.260;20.816;2022-08-19T10:46:54;27.30;59.60
72930;DHT22;61073;54.260;20.816;2022-08-19T10:49:21;27.20;59.60
72930;DHT22;61073;54.260;20.816;2022-08-19T10:51:51;27.20;59.50
72930;DHT22;61073;54.260;20.816;2022-08-19T10:54:36;27.30;59.50
72930;DHT22;61073;54.260;20.816;2022-08-19T10:57:22;27.30;59.40
72930;DHT22;61073;54.260;20.816;2022-08-19T11:00:03;27.30;59.20
72930;DHT22;61073;54.260;20.816;2022-08-19T11:02:29;27.30;59.20
72930;DHT22;61073;54.260;20.816;2022-08-19T11:04:59;27.30;59.00
72930;DHT22;61073;54.260;20.816;2022-08-19T11:07:29;27.40;58.90
72930;DHT22;61073;54.260;20.816;2022-08-19T11:09:56;27.40;58.80
72930;DHT22;61073;54.260;20.816;2022-08-19T11:12:22;27.40;58.70
72930;DHT22;61073;54.260;20.816;2022-08-19T11:14:49;27.40;58.70
72930;DHT22;61073;54.260;20.816;2022-08-19T11:17:16;27.50;58.70
72930;DHT22;61073;54.260;20.816;2022-08-19T11:19:42;27.50;58.70
72930;DHT22;61073;54.260;20.816;2022-08-19T11:22:09;27.40;58.50
72930;DHT22;61073;54.260;20.816;2022-08-19T11:24:36;27.50;58.50
72930;DHT22;61073;54.260;20.816;2022-08-19T11:27:06;27.50;58.40
72930;DHT22;61073;54.260;20.816;2022-08-19T11:29:38;27.50;58.40
72930;DHT22;61073;54.260;20.816;2022-08-19T11:32:08;27.50;58.50
72930;DHT22;61073;54.260;20.816;2022-08-19T11:34:39;27.60;58.40
72930;DHT22;61073;54.260;20.816;2022-08-19T11:37:06;27.60;58.40
72930;DHT22;61073;54.260;20.816;2022-08-19T11:39:35;27.60;58.30
72930;DHT22;61073;54.260;20.816;2022-08-19T11:42:04;27.60;58.20
72930;DHT22;61073;54.260;20.816;2022-08-19T11:44:51;27.70;58.20
72930;DHT22;61073;54.260;20.816;2022-08-19T11:47:18;27.70;58.00
72930;DHT22;61073;54.260;20.816;2022-08-19T11:49:46;27.80;58.00
72930;DHT22;61073;54.260;20.816;2022-08-19T11:52:13;27.80;57.80
72930;DHT22;61073;54.260;20.816;2022-08-19T11:54:40;27.90;57.80
72930;DHT22;61073;54.260;20.816;2022-08-19T11:57:07;28.00;57.50
72930;DHT22;61073;54.260;20.816;2022-08-19T11:59:33;28.20;57.20
72930;DHT22;61073;54.260;20.816;2022-08-19T12:02:01;28.40;56.40
72930;DHT22;61073;54.260;20.816;2022-08-19T12:04:27;28.90;55.20
72930;DHT22;61073;54.260;20.816;2022-08-19T12:06:54;29.10;54.60
72930;DHT22;61073;54.260;20.816;2022-08-19T12:09:21;29.60;53.70
72930;DHT22;61073;54.260;20.816;2022-08-19T12:11:48;29.90;52.90
72930;DHT22;61073;54.260;20.816;2022-08-19T12:14:15;30.10;52.30
72930;DHT22;61073;54.260;20.816;2022-08-19T12:16:44;30.10;52.10
72930;DHT22;61073;54.260;20.816;2022-08-19T12:19:12;30.10;52.10
72930;DHT22;61073;54.260;20.816;2022-08-19T12:21:39;30.10;52.10
72930;DHT22;61073;54.260;20.816;2022-08-19T12:24:06;30.10;52.00
72930;DHT22;61073;54.260;20.816;2022-08-19T12:26:33;30.00;52.10
72930;DHT22;61073;54.260;20.816;2022-08-19T12:29:00;29.90;52.30
72930;DHT22;61073;54.260;20.816;2022-08-19T12:31:28;29.70;52.70
72930;DHT22;61073;54.260;20.816;2022-08-19T12:33:55;29.50;53.20
72930;DHT22;61073;54.260;20.816;2022-08-19T12:36:22;29.40;54.10
72930;DHT22;61073;54.260;20.816;2022-08-19T12:38:49;29.40;53.50
72930;DHT22;61073;54.260;20.816;2022-08-19T12:41:16;29.40;53.60
72930;DHT22;61073;54.260;20.816;2022-08-19T12:43:45;29.40;54.00
72930;DHT22;61073;54.260;20.816;2022-08-19T12:46:12;29.50;53.40
72930;DHT22;61073;54.260;20.816;2022-08-19T12:48:39;29.50;53.10
72930;DHT22;61073;54.260;20.816;2022-08-19T12:51:10;29.60;53.00
72930;DHT22;61073;54.260;20.816;2022-08-19T12:53:37;29.70;52.90
72930;DHT22;61073;54.260;20.816;2022-08-19T12:56:04;29.60;52.90
72930;DHT22;61073;54.260;20.816;2022-08-19T12:58:31;29.60;53.10
72930;DHT22;61073;54.260;20.816;2022-08-19T13:01:12;29.60;53.30
72930;DHT22;61073;54.260;20.816;2022-08-19T13:03:39;29.50;53.50
72930;DHT22;61073;54.260;20.816;2022-08-19T13:06:07;29.40;53.60
72930;DHT22;61073;54.260;20.816;2022-08-19T13:08:35;29.40;53.70
72930;DHT22;61073;54.260;20.816;2022-08-19T13:11:10;29.40;53.90
72930;DHT22;61073;54.260;20.816;2022-08-19T13:13:40;29.30;54.00
72930;DHT22;61073;54.260;20.816;2022-08-19T13:16:09;29.30;54.10
72930;DHT22;61073;54.260;20.816;2022-08-19T13:18:38;29.20;54.10
72930;DHT22;61073;54.260;20.816;2022-08-19T13:21:08;29.20;54.20
72930;DHT22;61073;54.260;20.816;2022-08-19T13:23:36;29.20;54.30
72930;DHT22;61073;54.260;20.816;2022-08-19T13:26:05;29.20;54.40
72930;DHT22;61073;54.260;20.816;2022-08-19T13:28:33;29.20;54.40
72930;DHT22;61073;54.260;20.816;2022-08-19T13:31:21;29.20;54.60
72930;DHT22;61073;54.260;20.816;2022-08-19T13:34:07;29.20;54.60
72930;DHT22;61073;54.260;20.816;2022-08-19T13:36:34;29.10;54.60
72930;DHT22;61073;54.260;20.816;2022-08-19T13:39:02;29.10;54.70
72930;DHT22;61073;54.260;20.816;2022-08-19T13:41:28;29.10;54.70
72930;DHT22;61073;54.260;20.816;2022-08-19T13:43:55;29.00;54.80
72930;DHT22;61073;54.260;20.816;2022-08-19T13:46:22;29.00;54.90
72930;DHT22;61073;54.260;20.816;2022-08-19T13:48:48;29.00;55.10
72930;DHT22;61073;54.260;20.816;2022-08-19T13:51:16;28.90;55.20
72930;DHT22;61073;54.260;20.816;2022-08-19T13:53:43;28.90;55.30
72930;DHT22;61073;54.260;20.816;2022-08-19T13:56:15;28.90;55.40
72930;DHT22;61073;54.260;20.816;2022-08-19T13:58:43;28.90;55.50
72930;DHT22;61073;54.260;20.816;2022-08-19T14:01:10;28.80;55.40
72930;DHT22;61073;54.260;20.816;2022-08-19T14:03:37;28.90;55.50
72930;DHT22;61073;54.260;20.816;2022-08-19T14:06:04;28.90;55.50
72930;DHT22;61073;54.260;20.816;2022-08-19T14:08:31;28.90;55.50
72930;DHT22;61073;54.260;20.816;2022-08-19T14:10:58;28.80;55.50
72930;DHT22;61073;54.260;20.816;2022-08-19T14:13:25;28.80;55.60
72930;DHT22;61073;54.260;20.816;2022-08-19T14:15:52;28.80;55.60
72930;DHT22;61073;54.260;20.816;2022-08-19T14:18:19;28.80;55.70
72930;DHT22;61073;54.260;20.816;2022-08-19T14:20:46;28.80;55.80
72930;DHT22;61073;54.260;20.816;2022-08-19T14:23:14;28.80;55.90
72930;DHT22;61073;54.260;20.816;2022-08-19T14:25:41;28.80;55.80
72930;DHT22;61073;54.260;20.816;2022-08-19T14:28:07;28.70;55.80
72930;DHT22;61073;54.260;20.816;2022-08-19T14:30:36;28.70;55.80
72930;DHT22;61073;54.260;20.816;2022-08-19T14:33:05;28.80;55.90
72930;DHT22;61073;54.260;20.816;2022-08-19T14:35:33;28.80;55.80
72930;DHT22;61073;54.260;20.816;2022-08-19T14:38:02;28.80;55.80
72930;DHT22;61073;54.260;20.816;2022-08-19T14:40:30;28.80;55.80
72930;DHT22;61073;54.260;20.816;2022-08-19T14:43:00;28.80;55.80
72930;DHT22;61073;54.260;20.816;2022-08-19T14:45:32;28.80;55.80
72930;DHT22;61073;54.260;20.816;2022-08-19T14:48:00;28.80;55.80
72930;DHT22;61073;54.260;20.816;2022-08-19T14:50:27;28.80;55.80
72930;DHT22;61073;54.260;20.816;2022-08-19T14:53:12;28.80;55.80
72930;DHT22;61073;54.260;20.816;2022-08-19T14:55:44;28.80;55.90
72930;DHT22;61073;54.260;20.816;2022-08-19T14:58:11;28.70;55.90
72930;DHT22;61073;54.260;20.816;2022-08-19T15:00:38;28.70;56.00
72930;DHT22;61073;54.260;20.816;2022-08-19T15:03:05;28.70;56.10
72930;DHT22;61073;54.260;20.816;2022-08-19T15:05:33;28.70;56.10
72930;DHT22;61073;54.260;20.816;2022-08-19T15:08:03;28.70;56.20
72930;DHT22;61073;54.260;20.816;2022-08-19T15:10:30;28.70;56.20
72930;DHT22;61073;54.260;20.816;2022-08-19T15:12:57;28.60;56.70
72930;DHT22;61073;54.260;20.816;2022-08-19T15:15:25;28.70;56.30
72930;DHT22;61073;54.260;20.816;2022-08-19T15:17:52;28.70;56.30
72930;DHT22;61073;54.260;20.816;2022-08-19T15:20:20;28.60;56.80
72930;DHT22;61073;54.260;20.816;2022-08-19T15:22:49;28.70;56.30
72930;DHT22;61073;54.260;20.816;2022-08-19T15:25:17;28.70;56.30
72930;DHT22;61073;54.260;20.816;2022-08-19T15:27:45;28.60;56.30
72930;DHT22;61073;54.260;20.816;2022-08-19T15:30:17;28.60;56.40
72930;DHT22;61073;54.260;20.816;2022-08-19T15:32:45;28.60;56.50
72930;DHT22;61073;54.260;20.816;2022-08-19T15:35:14;28.60;56.50
72930;DHT22;61073;54.260;20.816;2022-08-19T15:37:41;28.50;56.50